Kaisei Maru — JD3114 — position and weather

sailwx.info

Track history (hours):
 
Tides and Currents Weather Stations Pressure Air Temp Water Temp Dewpoint Dewpoint Depression Visibility Wind Speed Wind Dir Waves Ship Positions

Kaisei Maru

Last reported at 2018-Feb-21 09:47 UTC. Time now 2018-Feb-23 02:41 UTC.
Position N 33°50' E 134°46'.

Length 52 m; draft 3.9 m.

Type: Tanker. MMSI: 431001837.

Date/timePositionNaut miles runAvg speedWind from/ knotsBaromVisibWave heightAir tempDewpointWater temp
2018-Feb-21 09:47N 33°50' E 134°46'810.6
2018-Feb-21 09:01N 33°56' E 134°53'0 9.4
2018-Feb-21 09:00N 33°56' E 134°54'510.6
2018-Feb-21 08:30N 34°00' E 134°56'510.9
2018-Feb-21 08:00N 34°06' E 134°58'511.0
2018-Feb-21 07:30N 34°11' E 135°01'611.6
2018-Feb-21 07:00N 34°16' E 135°03'611.6
2018-Feb-21 06:30N 34°21' E 135°06'510.7
2018-Feb-21 06:01N 34°25' E 135°10'510.2
2018-Feb-21 05:30N 34°30' E 135°14'510.1
2018-Feb-21 05:01N 34°34' E 135°17'510.3
2018-Feb-21 04:30N 34°38' E 135°21'5 9.4
2018-Feb-21 04:00N 34°42' E 135°24'0 0.1
2018-Feb-21 03:31N 34°42' E 135°24'0 0.0
2018-Feb-21 03:00N 34°42' E 135°24'0 0.0
2018-Feb-21 02:30N 34°42' E 135°24'0 0.0
2018-Feb-21 02:00N 34°42' E 135°24'0 0.0
2018-Feb-21 01:30N 34°42' E 135°24'0 0.0
2018-Feb-21 01:00N 34°42' E 135°24'0 0.0
2018-Feb-21 00:30N 34°42' E 135°24'0 0.0
2018-Feb-21 00:00N 34°42' E 135°24'0 0.0
2018-Feb-20 23:30N 34°42' E 135°24'2 3.4
2018-Feb-20 23:01N 34°40' E 135°23'2 3.1
2018-Feb-20 22:30N 34°42' E 135°24'0 0.0
2018-Feb-20 22:00N 34°42' E 135°24'0 0.0
2018-Feb-20 21:30N 34°42' E 135°24'0 0.0
2018-Feb-20 21:00N 34°42' E 135°24'0 0.0
2018-Feb-20 20:30N 34°42' E 135°24'0 0.0
2018-Feb-20 20:00N 34°42' E 135°24'0 0.0
2018-Feb-20 19:30N 34°42' E 135°24'0 0.0
2018-Feb-20 19:00N 34°42' E 135°24'0 0.0
2018-Feb-20 18:30N 34°42' E 135°24'0 0.0
2018-Feb-20 18:00N 34°42' E 135°24'0 0.0
2018-Feb-20 17:31N 34°42' E 135°24'0 0.0
2018-Feb-20 17:00N 34°42' E 135°24'0 0.0
2018-Feb-20 16:30N 34°42' E 135°24'0 0.0
2018-Feb-20 16:00N 34°42' E 135°24'0 0.0
2018-Feb-20 15:30N 34°42' E 135°24'0 0.0
2018-Feb-20 15:00N 34°42' E 135°24'0 0.0
2018-Feb-20 14:30N 34°42' E 135°24'0 0.0
2018-Feb-20 14:00N 34°42' E 135°24'0 0.0
2018-Feb-20 13:30N 34°42' E 135°24'0 0.0
2018-Feb-20 13:00N 34°42' E 135°24'0 0.0
2018-Feb-20 12:31N 34°42' E 135°24'0 0.0
2018-Feb-20 12:00N 34°42' E 135°24'0 0.0
2018-Feb-20 11:31N 34°42' E 135°24'0 0.0
2018-Feb-20 11:00N 34°42' E 135°24'0 0.0
2018-Feb-20 10:31N 34°42' E 135°24'0 0.0
2018-Feb-20 10:00N 34°42' E 135°24'0 0.0
2018-Feb-20 09:31N 34°42' E 135°24'0 0.0
2018-Feb-20 09:00N 34°42' E 135°24'0 0.0
2018-Feb-20 08:31N 34°42' E 135°24'0 0.0
2018-Feb-20 08:00N 34°42' E 135°24'0 0.0
2018-Feb-20 07:30N 34°42' E 135°24'0 0.0
2018-Feb-20 07:00N 34°42' E 135°24'0 0.0
2018-Feb-20 06:30N 34°42' E 135°24'0 0.0
2018-Feb-20 06:00N 34°42' E 135°24'0 0.0
2018-Feb-20 05:30N 34°42' E 135°24'0 0.0
2018-Feb-20 05:00N 34°42' E 135°24'0 0.0
2018-Feb-20 04:30N 34°42' E 135°24'0 0.0
2018-Feb-20 04:00N 34°42' E 135°24'0 0.0
2018-Feb-20 03:30N 34°42' E 135°24'0 0.0
2018-Feb-20 03:00N 34°42' E 135°24'0 0.0
2018-Feb-20 02:30N 34°42' E 135°24'0 0.0
2018-Feb-20 02:00N 34°42' E 135°24'0 0.0
2018-Feb-20 01:30N 34°42' E 135°24'0 0.0
2018-Feb-20 01:00N 34°42' E 135°24'0 0.0
2018-Feb-20 00:30N 34°42' E 135°24'0 0.0
2018-Feb-20 00:00N 34°42' E 135°24'0 0.0
2018-Feb-19 23:30N 34°42' E 135°24'0 0.0
2018-Feb-19 23:00N 34°42' E 135°24'0 0.0
2018-Feb-19 22:30N 34°42' E 135°24'0 0.0
2018-Feb-19 22:00N 34°42' E 135°24'1 2.9
2018-Feb-19 21:30N 34°41' E 135°23'611.2
2018-Feb-19 21:00N 34°41' E 135°16'3 6.1
2018-Feb-19 20:30N 34°41' E 135°12'0 0.0
2018-Feb-19 20:00N 34°41' E 135°12'0 0.0
2018-Feb-19 19:30N 34°41' E 135°12'0 0.0
2018-Feb-19 19:00N 34°41' E 135°12'0 0.0
2018-Feb-19 18:31N 34°41' E 135°12'0 0.0
2018-Feb-19 18:00N 34°41' E 135°12'0 0.0
2018-Feb-19 17:30N 34°41' E 135°12'0 0.0
2018-Feb-19 17:00N 34°41' E 135°12'0 0.0
2018-Feb-19 16:30N 34°41' E 135°12'0 0.0
2018-Feb-19 16:00N 34°41' E 135°12'0 0.0
2018-Feb-19 15:30N 34°41' E 135°12'0 0.0
2018-Feb-19 15:00N 34°41' E 135°12'0 0.0
2018-Feb-19 14:30N 34°41' E 135°12'0 0.0
2018-Feb-19 14:00N 34°41' E 135°12'0 0.0
2018-Feb-19 13:30N 34°41' E 135°12'0 0.0
2018-Feb-19 13:00N 34°41' E 135°12'0 0.0
2018-Feb-19 12:30N 34°41' E 135°12'0 0.0
2018-Feb-19 12:00N 34°41' E 135°12'0 0.0
2018-Feb-19 11:30N 34°41' E 135°12'0 0.0
2018-Feb-19 11:00N 34°41' E 135°12'0 0.0
2018-Feb-19 10:30N 34°41' E 135°12'0 0.0
2018-Feb-19 10:00N 34°41' E 135°12'0 0.0
2018-Feb-19 09:30N 34°41' E 135°12'0 0.0
2018-Feb-19 09:00N 34°41' E 135°12'0 0.0
2018-Feb-19 08:31N 34°41' E 135°12'0 0.0
2018-Feb-19 08:00N 34°41' E 135°12'0 0.0
2018-Feb-19 07:30N 34°41' E 135°12'4 8.8
2018-Feb-19 07:01N 34°41' E 135°18'5 9.5
2018-Feb-19 06:30N 34°36' E 135°20'611.3
2018-Feb-19 06:00N 34°32' E 135°24'1 2.0
2018-Feb-19 05:31N 34°31' E 135°25'0 0.0
2018-Feb-19 05:00N 34°31' E 135°25'0 0.0
2018-Feb-19 04:30N 34°31' E 135°25'0 0.0
2018-Feb-19 04:00N 34°31' E 135°25'0 0.0
2018-Feb-19 03:30N 34°31' E 135°25'0 0.0
2018-Feb-19 03:00N 34°31' E 135°25'0 0.0
2018-Feb-19 02:30N 34°31' E 135°25'0 0.0
2018-Feb-19 02:00N 34°31' E 135°25'0 0.0
2018-Feb-19 01:30N 34°31' E 135°25'1 2.4
2018-Feb-19 01:01N 34°32' E 135°24'1 3.0
2018-Feb-19 00:30N 34°33' E 135°23'4 7.7
2018-Feb-19 00:01N 34°37' E 135°21'2 4.9
2018-Feb-18 23:30N 34°39' E 135°19'0 0.0
2018-Feb-18 23:00N 34°39' E 135°19'0 0.1
2018-Feb-18 22:30N 34°39' E 135°19'0 0.0
2018-Feb-18 22:01N 34°39' E 135°19'0 0.0
2018-Feb-18 21:31N 34°39' E 135°19'0 0.0
2018-Feb-18 21:00N 34°39' E 135°19'0 0.0
2018-Feb-18 20:30N 34°39' E 135°19'0 0.0
2018-Feb-18 20:00N 34°39' E 135°19'0 0.0
2018-Feb-18 19:30N 34°39' E 135°19'0 0.0
2018-Feb-18 19:00N 34°39' E 135°19'0 0.0
2018-Feb-18 18:30N 34°39' E 135°19'0 0.0
2018-Feb-18 18:01N 34°39' E 135°19'0 0.0
2018-Feb-18 17:30N 34°39' E 135°19'0 0.0
2018-Feb-18 17:00N 34°39' E 135°19'0 0.0
2018-Feb-18 16:30N 34°39' E 135°19'0 0.0
2018-Feb-18 16:01N 34°39' E 135°19'0 0.0
2018-Feb-18 15:30N 34°39' E 135°19'0 0.0
2018-Feb-18 15:00N 34°39' E 135°19'0 0.0
2018-Feb-18 14:30N 34°39' E 135°19'2 3.1
2018-Feb-18 14:00N 34°40' E 135°18'0 0.0
2018-Feb-18 13:30N 34°40' E 135°18'0 0.0
2018-Feb-18 13:00N 34°40' E 135°18'0 0.0
2018-Feb-18 12:30N 34°40' E 135°18'0 0.0
2018-Feb-18 12:00N 34°40' E 135°18'0 0.0
2018-Feb-18 11:30N 34°40' E 135°18'1 1.1
2018-Feb-18 11:00N 34°39' E 135°18'0 0.8
2018-Feb-18 10:30N 34°39' E 135°17'4 8.2
2018-Feb-18 10:00N 34°35' E 135°16'510.7
2018-Feb-18 09:30N 34°40' E 135°14'2 3.7
2018-Feb-18 09:00N 34°41' E 135°12'0 0.0
2018-Feb-18 08:29N 34°41' E 135°12'0 0.0
2018-Feb-18 08:00N 34°41' E 135°12'0 0.0
2018-Feb-18 07:30N 34°41' E 135°12'0 0.0
2018-Feb-18 07:00N 34°41' E 135°12'0 0.0
2018-Feb-18 06:29N 34°41' E 135°12'0 0.0
2018-Feb-18 06:00N 34°41' E 135°12'0 0.0
2018-Feb-18 05:30N 34°41' E 135°12'0 0.0
2018-Feb-18 05:00N 34°41' E 135°12'0 0.0
2018-Feb-18 04:30N 34°41' E 135°12'0 0.0
2018-Feb-18 04:00N 34°41' E 135°12'0 0.0
2018-Feb-18 03:30N 34°41' E 135°12'0 0.0
2018-Feb-18 03:00N 34°41' E 135°12'0 0.0
2018-Feb-18 02:30N 34°41' E 135°12'0 0.0
2018-Feb-18 02:00N 34°41' E 135°12'0 0.0
2018-Feb-18 01:30N 34°41' E 135°12'0 0.0
2018-Feb-18 01:00N 34°41' E 135°12'0 0.0
2018-Feb-18 00:30N 34°41' E 135°12'0 0.0
2018-Feb-18 00:00N 34°41' E 135°12'0 0.0
2018-Feb-17 23:30N 34°41' E 135°12'0 0.0
2018-Feb-17 23:00N 34°41' E 135°12'0 0.0
2018-Feb-17 22:31N 34°41' E 135°12'0 0.0
2018-Feb-17 22:00N 34°41' E 135°12'0 0.0
2018-Feb-17 21:30N 34°41' E 135°12'0 0.0
2018-Feb-17 21:01N 34°41' E 135°12'0 0.0
2018-Feb-17 20:29N 34°41' E 135°12'0 0.0
2018-Feb-17 20:01N 34°41' E 135°12'0 0.0
2018-Feb-17 19:30N 34°41' E 135°12'0 0.0
2018-Feb-17 19:00N 34°41' E 135°12'0 0.0
2018-Feb-17 18:31N 34°41' E 135°12'0 0.0
2018-Feb-17 18:01N 34°41' E 135°12'0 0.0
2018-Feb-17 17:30N 34°41' E 135°12'0 0.0
2018-Feb-17 17:00N 34°41' E 135°12'0 0.0
2018-Feb-17 16:30N 34°41' E 135°12'0 0.0
2018-Feb-17 16:00N 34°41' E 135°12'0 0.0
2018-Feb-17 15:30N 34°41' E 135°12'0 0.0
2018-Feb-17 15:01N 34°41' E 135°12'0 0.0
2018-Feb-17 14:30N 34°41' E 135°12'0 0.0
2018-Feb-17 14:00N 34°41' E 135°12'0 0.0
2018-Feb-17 13:30N 34°41' E 135°12'0 0.0
2018-Feb-17 13:00N 34°41' E 135°12'0 0.0
2018-Feb-17 12:30N 34°41' E 135°12'0 0.0
2018-Feb-17 12:00N 34°41' E 135°12'0 0.0
2018-Feb-17 11:29N 34°41' E 135°12'0 0.0
2018-Feb-17 11:00N 34°41' E 135°12'0 0.0
2018-Feb-17 10:31N 34°41' E 135°12'0 0.0
2018-Feb-17 10:00N 34°41' E 135°12'0 0.0
2018-Feb-17 09:30N 34°41' E 135°12'0 0.0
2018-Feb-17 09:01N 34°41' E 135°12'0 0.0
2018-Feb-17 08:30N 34°41' E 135°12'0 0.0
2018-Feb-17 08:00N 34°41' E 135°12'0 0.0
2018-Feb-17 07:30N 34°41' E 135°12'0 0.0
2018-Feb-17 07:00N 34°41' E 135°12'0 0.0
2018-Feb-17 06:30N 34°41' E 135°12'0 0.0
2018-Feb-17 06:01N 34°41' E 135°12'0 0.0
2018-Feb-17 05:30N 34°41' E 135°12'0 0.0
2018-Feb-17 05:01N 34°41' E 135°12'0 0.0
2018-Feb-17 04:30N 34°41' E 135°12'0 0.0
2018-Feb-17 04:00N 34°41' E 135°12'0 0.0
2018-Feb-17 03:30N 34°41' E 135°12'0 0.0
2018-Feb-17 03:00N 34°41' E 135°12'0 0.0
2018-Feb-17 02:29N 34°41' E 135°12'0 0.0
2018-Feb-17 02:00N 34°41' E 135°12'0 0.0
2018-Feb-17 01:30N 34°41' E 135°12'0 0.0
2018-Feb-17 01:00N 34°41' E 135°12'0 0.0
2018-Feb-17 00:30N 34°41' E 135°12'0 0.0
2018-Feb-17 00:00N 34°41' E 135°12'0 0.0
2018-Feb-16 23:30N 34°41' E 135°12'0 0.0
2018-Feb-16 23:00N 34°41' E 135°12'0 0.0
2018-Feb-16 22:30N 34°41' E 135°12'0 0.0
2018-Feb-16 22:00N 34°41' E 135°12'0 0.0
2018-Feb-16 21:30N 34°41' E 135°12'0 0.0
2018-Feb-16 21:00N 34°41' E 135°12'0 0.0
2018-Feb-16 20:30N 34°41' E 135°12'0 0.0
2018-Feb-16 20:00N 34°41' E 135°12'0 0.0
2018-Feb-16 19:29N 34°41' E 135°12'0 0.0
2018-Feb-16 19:00N 34°41' E 135°12'0 0.0
2018-Feb-16 18:30N 34°41' E 135°12'0 0.0
2018-Feb-16 18:00N 34°41' E 135°12'0 0.0
2018-Feb-16 17:31N 34°41' E 135°12'0 0.0
2018-Feb-16 17:00N 34°41' E 135°12'0 0.0
2018-Feb-16 16:30N 34°41' E 135°12'0 0.0
2018-Feb-16 16:00N 34°41' E 135°12'0 0.0
2018-Feb-16 15:30N 34°41' E 135°12'0 0.0
2018-Feb-16 15:00N 34°41' E 135°12'0 0.0
2018-Feb-16 14:30N 34°41' E 135°12'0 0.0
2018-Feb-16 14:01N 34°41' E 135°12'0 0.0
2018-Feb-16 13:30N 34°41' E 135°12'0 0.0
2018-Feb-16 13:00N 34°41' E 135°12'0 0.0
2018-Feb-16 12:30N 34°41' E 135°12'0 0.0
2018-Feb-16 12:00N 34°41' E 135°12'0 0.0
2018-Feb-16 11:30N 34°41' E 135°12'0 0.0
2018-Feb-16 11:01N 34°41' E 135°12'0 0.0
2018-Feb-16 10:30N 34°41' E 135°12'0 0.0
2018-Feb-16 10:01N 34°41' E 135°12'0 0.0
2018-Feb-16 09:30N 34°41' E 135°12'0 0.0
2018-Feb-16 09:00N 34°41' E 135°12'0 0.0
2018-Feb-16 08:30N 34°41' E 135°12'0 0.0
2018-Feb-16 08:01N 34°41' E 135°12'0 0.0
2018-Feb-16 07:30N 34°41' E 135°12'0 0.0
2018-Feb-16 07:00N 34°41' E 135°12'0 0.0
2018-Feb-16 06:30N 34°41' E 135°12'0 0.0
2018-Feb-16 06:00N 34°41' E 135°12'0 0.0
2018-Feb-16 05:30N 34°41' E 135°12'0 0.0
2018-Feb-16 05:00N 34°41' E 135°12'0 0.0
2018-Feb-16 04:31N 34°41' E 135°12'0 0.0
2018-Feb-16 04:00N 34°41' E 135°12'0 0.0
2018-Feb-16 03:30N 34°41' E 135°12'0 0.0
2018-Feb-16 03:01N 34°41' E 135°12'0 0.0
2018-Feb-16 02:30N 34°41' E 135°12'0 0.0
2018-Feb-16 02:00N 34°41' E 135°12'0 0.0
2018-Feb-16 01:31N 34°41' E 135°12'0 0.0
2018-Feb-16 01:01N 34°41' E 135°12'0 0.0
2018-Feb-16 00:30N 34°41' E 135°12'0 0.0
2018-Feb-16 00:00N 34°41' E 135°12'0 0.0
2018-Feb-15 23:30N 34°41' E 135°12'0 0.0
2018-Feb-15 23:00N 34°41' E 135°12'0 0.0
2018-Feb-15 22:30N 34°41' E 135°12'0 0.0
2018-Feb-15 22:00N 34°41' E 135°12'0 0.0
2018-Feb-15 21:30N 34°41' E 135°12'0 0.0
2018-Feb-15 21:00N 34°41' E 135°12'0 0.0
2018-Feb-15 20:30N 34°41' E 135°12'0 0.0
2018-Feb-15 20:00N 34°41' E 135°12'0 0.0
2018-Feb-15 19:30N 34°41' E 135°12'0 0.0
2018-Feb-15 19:00N 34°41' E 135°12'0 0.0
2018-Feb-15 18:30N 34°41' E 135°12'0 0.0
2018-Feb-15 18:00N 34°41' E 135°12'0 0.0
2018-Feb-15 17:30N 34°41' E 135°12'0 0.0
2018-Feb-15 17:00N 34°41' E 135°12'0 0.0
2018-Feb-15 16:30N 34°41' E 135°12'0 0.0
2018-Feb-15 16:00N 34°41' E 135°12'0 0.0
2018-Feb-15 15:30N 34°41' E 135°12'0 0.0
2018-Feb-15 15:00N 34°41' E 135°12'0 0.0
2018-Feb-15 14:30N 34°41' E 135°12'0 0.0
2018-Feb-15 14:01N 34°41' E 135°12'0 0.0
2018-Feb-15 13:30N 34°41' E 135°12'0 0.0
2018-Feb-15 13:00N 34°41' E 135°12'0 0.0
2018-Feb-15 12:30N 34°41' E 135°12'0 0.0
2018-Feb-15 12:00N 34°41' E 135°12'0 0.0
2018-Feb-15 11:30N 34°41' E 135°12'0 0.0
2018-Feb-15 11:00N 34°41' E 135°12'0 0.0
2018-Feb-15 10:30N 34°41' E 135°12'0 0.0
2018-Feb-15 10:00N 34°41' E 135°12'0 0.0
2018-Feb-15 09:30N 34°41' E 135°12'0 0.0
2018-Feb-15 09:00N 34°41' E 135°12'0 0.0
2018-Feb-15 08:30N 34°41' E 135°12'0 0.0
2018-Feb-15 08:01N 34°41' E 135°12'0 0.0
2018-Feb-15 07:30N 34°41' E 135°12'0 0.0
2018-Feb-15 07:00N 34°41' E 135°12'0 0.0
2018-Feb-15 06:30N 34°41' E 135°12'0 0.0
2018-Feb-15 06:00N 34°41' E 135°12'0 0.0
2018-Feb-15 05:30N 34°41' E 135°12'0 0.0
2018-Feb-15 05:01N 34°41' E 135°12'0 0.0
2018-Feb-15 04:30N 34°41' E 135°12'0 0.0
2018-Feb-15 04:01N 34°41' E 135°12'5 9.0
2018-Feb-15 03:30N 34°41' E 135°18'510.2
2018-Feb-15 03:00N 34°42' E 135°24'0 0.9
2018-Feb-15 02:30N 34°42' E 135°24'0 0.1
2018-Feb-15 02:00N 34°42' E 135°23'0 0.0
2018-Feb-15 01:31N 34°42' E 135°23'0 0.0
2018-Feb-15 01:00N 34°42' E 135°23'0 0.0
2018-Feb-15 00:30N 34°42' E 135°23'0 0.0
2018-Feb-15 00:00N 34°42' E 135°23'0 0.0
2018-Feb-14 23:30N 34°42' E 135°23'0 0.0
2018-Feb-14 23:00N 34°42' E 135°23'0 0.0
2018-Feb-14 22:30N 34°42' E 135°23'0 0.8
2018-Feb-14 22:01N 34°42' E 135°24'1 2.1
2018-Feb-14 21:30N 34°41' E 135°23'0 0.1
2018-Feb-14 21:00N 34°41' E 135°23'0 0.0
2018-Feb-14 20:30N 34°41' E 135°23'0 0.0
2018-Feb-14 20:00N 34°41' E 135°23'0 0.0
2018-Feb-14 19:30N 34°41' E 135°23'0 0.0
2018-Feb-14 19:00N 34°41' E 135°23'0 0.1
2018-Feb-14 18:30N 34°41' E 135°23'0 0.0
2018-Feb-14 18:01N 34°41' E 135°23'0 0.0
2018-Feb-14 17:30N 34°41' E 135°23'0 0.0
2018-Feb-14 17:01N 34°41' E 135°23'0 0.0
2018-Feb-14 16:30N 34°41' E 135°23'0 0.0
2018-Feb-14 16:01N 34°41' E 135°23'0 0.1
2018-Feb-14 15:30N 34°41' E 135°23'0 0.0
2018-Feb-14 15:00N 34°41' E 135°23'0 0.0
2018-Feb-14 14:31N 34°41' E 135°23'0 0.0
2018-Feb-14 14:00N 34°41' E 135°23'0 0.0
2018-Feb-14 13:31N 34°41' E 135°23'0 0.0
2018-Feb-14 13:00N 34°41' E 135°23'0 0.0
2018-Feb-14 12:30N 34°41' E 135°23'0 0.0
2018-Feb-14 12:00N 34°41' E 135°23'0 0.1
2018-Feb-14 11:30N 34°41' E 135°23'0 0.0
2018-Feb-14 11:00N 34°41' E 135°23'0 0.1
2018-Feb-14 10:30N 34°41' E 135°23'0 0.0
2018-Feb-14 10:00N 34°41' E 135°23'0 0.1
2018-Feb-14 09:31N 34°41' E 135°23'2 3.5
2018-Feb-14 09:00N 34°41' E 135°21'0 0.0
2018-Feb-14 08:30N 34°41' E 135°21'0 0.0
2018-Feb-14 08:00N 34°41' E 135°21'0 0.0
2018-Feb-14 07:31N 34°41' E 135°21'0 0.0
2018-Feb-14 07:00N 34°41' E 135°21'1 2.2
2018-Feb-14 06:30N 34°41' E 135°23'2 3.5
2018-Feb-14 06:00N 34°42' E 135°24'0 0.8
2018-Feb-14 05:31N 34°42' E 135°23'0 0.0
2018-Feb-14 05:00N 34°42' E 135°23'0 0.0
2018-Feb-14 04:30N 34°42' E 135°23'0 0.0
2018-Feb-14 04:01N 34°42' E 135°23'0 0.0
2018-Feb-14 03:30N 34°42' E 135°23'0 0.0
2018-Feb-14 03:00N 34°42' E 135°23'0 0.0
2018-Feb-14 02:31N 34°42' E 135°23'0 0.2
2018-Feb-14 02:00N 34°42' E 135°24'0 0.0
2018-Feb-14 01:31N 34°42' E 135°24'0 0.8
2018-Feb-14 01:01N 34°42' E 135°24'4 8.2
2018-Feb-14 00:31N 34°40' E 135°20'510.1
2018-Feb-14 00:00N 34°39' E 135°14'2 3.7
2018-Feb-13 23:30N 34°40' E 135°12'0 0.0
2018-Feb-13 23:01N 34°40' E 135°12'0 0.0
2018-Feb-13 22:30N 34°40' E 135°12'0 0.0
2018-Feb-13 22:01N 34°40' E 135°12'0 0.0
2018-Feb-13 21:31N 34°40' E 135°12'0 0.0
2018-Feb-13 21:00N 34°40' E 135°12'0 0.0
2018-Feb-13 20:30N 34°40' E 135°12'0 0.0
2018-Feb-13 20:00N 34°40' E 135°12'0 0.0
2018-Feb-13 19:30N 34°40' E 135°12'0 0.1
2018-Feb-13 18:59N 34°40' E 135°12'0 0.1
2018-Feb-13 18:30N 34°40' E 135°12'0 0.0
2018-Feb-13 18:01N 34°40' E 135°12'0 0.0
2018-Feb-13 17:30N 34°40' E 135°12'0 0.0
2018-Feb-13 17:01N 34°40' E 135°12'0 0.1
2018-Feb-13 16:30N 34°40' E 135°12'0 0.1
2018-Feb-13 16:00N 34°40' E 135°12'0 0.0
2018-Feb-13 15:31N 34°40' E 135°12'0 0.1
2018-Feb-13 15:01N 34°40' E 135°12'0 0.1
2018-Feb-13 14:30N 34°40' E 135°12'0 0.1
2018-Feb-13 14:01N 34°40' E 135°12'0 0.0
2018-Feb-13 13:31N 34°40' E 135°12'0 0.0
2018-Feb-13 13:01N 34°40' E 135°12'0 0.0
2018-Feb-13 12:31N 34°40' E 135°12'1 1.7
2018-Feb-13 12:00N 34°41' E 135°12'0 0.6
2018-Feb-13 11:31N 34°41' E 135°12'0 0.0
2018-Feb-13 11:01N 34°41' E 135°12'0 0.0
2018-Feb-13 10:30N 34°41' E 135°12'0 0.0
2018-Feb-13 10:00N 34°41' E 135°12'1 2.6
2018-Feb-13 09:31N 34°40' E 135°11'611.5
2018-Feb-13 09:01N 34°34' E 135°09'611.2
2018-Feb-13 08:31N 34°29' E 135°06'611.5
2018-Feb-13 08:01N 34°24' E 135°04'611.1
2018-Feb-13 07:30N 34°19' E 135°00'510.8
2018-Feb-13 07:01N 34°14' E 134°57'510.8
2018-Feb-13 06:30N 34°10' E 134°52'5 9.8
2018-Feb-13 06:00N 34°07' E 134°48'510.2
2018-Feb-13 05:30N 34°04' E 134°43'4 7.5
2018-Feb-13 04:58N 34°00' E 134°43'5 8.8
2018-Feb-13 04:24N 33°56' E 134°45'1 0.1
2018-Feb-12 11:43N 33°57' E 134°44'311.6
2018-Feb-12 11:28N 33°60' E 134°43'511.7
2018-Feb-12 11:01N 34°05' E 134°42'611.3
2018-Feb-12 10:30N 34°10' E 134°40'510.2
2018-Feb-12 09:58N 34°16' E 134°37'4 8.6
2018-Feb-12 09:30N 34°16' E 134°33'3 6.2
2018-Feb-12 09:01N 34°19' E 134°34'4 8.6
2018-Feb-12 08:30N 34°23' E 134°37'5 9.6
2018-Feb-12 08:00N 34°27' E 134°38'5 9.4
2018-Feb-12 07:31N 34°32' E 134°40'510.1
2018-Feb-12 07:00N 34°36' E 134°42'510.1
2018-Feb-12 06:31N 34°41' E 134°45'4 0.5
2018-Feb-11 22:13N 34°45' E 134°47'1 2.7
2018-Feb-11 22:00N 34°44' E 134°47'0 0.2
2018-Feb-11 21:30N 34°44' E 134°47'0 0.0
2018-Feb-11 21:00N 34°44' E 134°47'0 0.0
2018-Feb-11 20:30N 34°44' E 134°47'0 0.0
2018-Feb-11 20:00N 34°44' E 134°47'0 0.0
2018-Feb-11 19:30N 34°44' E 134°47'0 0.0
2018-Feb-11 19:00N 34°44' E 134°47'0 0.0
2018-Feb-11 18:29N 34°44' E 134°47'0 0.0
2018-Feb-11 18:01N 34°44' E 134°47'0 0.0
2018-Feb-11 17:30N 34°44' E 134°47'0 0.0
2018-Feb-11 17:00N 34°44' E 134°47'0 0.0
2018-Feb-11 16:30N 34°44' E 134°47'0 0.0
2018-Feb-11 16:01N 34°44' E 134°47'0 0.0
2018-Feb-11 15:31N 34°44' E 134°47'0 0.0
2018-Feb-11 15:00N 34°44' E 134°47'0 0.0
2018-Feb-11 14:30N 34°44' E 134°47'0 0.0
2018-Feb-11 14:00N 34°44' E 134°47'0 0.0
2018-Feb-11 13:30N 34°44' E 134°47'0 0.0
2018-Feb-11 13:00N 34°44' E 134°47'0 0.0
2018-Feb-11 12:31N 34°44' E 134°47'0 0.0
2018-Feb-11 12:00N 34°44' E 134°47'0 0.0
2018-Feb-11 11:30N 34°44' E 134°47'0 0.0
2018-Feb-11 11:00N 34°44' E 134°47'0 0.0
2018-Feb-11 10:30N 34°44' E 134°47'0 0.0
2018-Feb-11 10:00N 34°44' E 134°47'  
Track history (hours):
 
Tides and Currents Weather Stations Pressure Air Temp Water Temp Dewpoint Dewpoint Depression Visibility Wind Speed Wind Dir Waves Ship Positions

Kaisei Maru

Last reported at 2018-Feb-21 09:47 UTC. Time now 2018-Feb-23 02:41 UTC.
Position N 33°50' E 134°46'.

Length 52 m; draft 3.9 m.

Type: Tanker. MMSI: 431001837.

Date/timePositionNaut miles runAvg speedWind from/ knotsBaromVisibWave heightAir tempDewpointWater temp
2018-Feb-21 09:47N 33°50' E 134°46'810.6
2018-Feb-21 09:01N 33°56' E 134°53'0 9.4
2018-Feb-21 09:00N 33°56' E 134°54'510.6
2018-Feb-21 08:30N 34°00' E 134°56'510.9
2018-Feb-21 08:00N 34°06' E 134°58'511.0
2018-Feb-21 07:30N 34°11' E 135°01'611.6
2018-Feb-21 07:00N 34°16' E 135°03'611.6
2018-Feb-21 06:30N 34°21' E 135°06'510.7
2018-Feb-21 06:01N 34°25' E 135°10'510.2
2018-Feb-21 05:30N 34°30' E 135°14'510.1
2018-Feb-21 05:01N 34°34' E 135°17'510.3
2018-Feb-21 04:30N 34°38' E 135°21'5 9.4
2018-Feb-21 04:00N 34°42' E 135°24'0 0.1
2018-Feb-21 03:31N 34°42' E 135°24'0 0.0
2018-Feb-21 03:00N 34°42' E 135°24'0 0.0
2018-Feb-21 02:30N 34°42' E 135°24'0 0.0
2018-Feb-21 02:00N 34°42' E 135°24'0 0.0
2018-Feb-21 01:30N 34°42' E 135°24'0 0.0
2018-Feb-21 01:00N 34°42' E 135°24'0 0.0
2018-Feb-21 00:30N 34°42' E 135°24'0 0.0
2018-Feb-21 00:00N 34°42' E 135°24'0 0.0
2018-Feb-20 23:30N 34°42' E 135°24'2 3.4
2018-Feb-20 23:01N 34°40' E 135°23'2 3.1
2018-Feb-20 22:30N 34°42' E 135°24'0 0.0
2018-Feb-20 22:00N 34°42' E 135°24'0 0.0
2018-Feb-20 21:30N 34°42' E 135°24'0 0.0
2018-Feb-20 21:00N 34°42' E 135°24'0 0.0
2018-Feb-20 20:30N 34°42' E 135°24'0 0.0
2018-Feb-20 20:00N 34°42' E 135°24'0 0.0
2018-Feb-20 19:30N 34°42' E 135°24'0 0.0
2018-Feb-20 19:00N 34°42' E 135°24'0 0.0
2018-Feb-20 18:30N 34°42' E 135°24'0 0.0
2018-Feb-20 18:00N 34°42' E 135°24'0 0.0
2018-Feb-20 17:31N 34°42' E 135°24'0 0.0
2018-Feb-20 17:00N 34°42' E 135°24'0 0.0
2018-Feb-20 16:30N 34°42' E 135°24'0 0.0
2018-Feb-20 16:00N 34°42' E 135°24'0 0.0
2018-Feb-20 15:30N 34°42' E 135°24'0 0.0
2018-Feb-20 15:00N 34°42' E 135°24'0 0.0
2018-Feb-20 14:30N 34°42' E 135°24'0 0.0
2018-Feb-20 14:00N 34°42' E 135°24'0 0.0
2018-Feb-20 13:30N 34°42' E 135°24'0 0.0
2018-Feb-20 13:00N 34°42' E 135°24'0 0.0
2018-Feb-20 12:31N 34°42' E 135°24'0 0.0
2018-Feb-20 12:00N 34°42' E 135°24'0 0.0
2018-Feb-20 11:31N 34°42' E 135°24'0 0.0
2018-Feb-20 11:00N 34°42' E 135°24'0 0.0
2018-Feb-20 10:31N 34°42' E 135°24'0 0.0
2018-Feb-20 10:00N 34°42' E 135°24'0 0.0
2018-Feb-20 09:31N 34°42' E 135°24'0 0.0
2018-Feb-20 09:00N 34°42' E 135°24'0 0.0
2018-Feb-20 08:31N 34°42' E 135°24'0 0.0
2018-Feb-20 08:00N 34°42' E 135°24'0 0.0
2018-Feb-20 07:30N 34°42' E 135°24'0 0.0
2018-Feb-20 07:00N 34°42' E 135°24'0 0.0
2018-Feb-20 06:30N 34°42' E 135°24'0 0.0
2018-Feb-20 06:00N 34°42' E 135°24'0 0.0
2018-Feb-20 05:30N 34°42' E 135°24'0 0.0
2018-Feb-20 05:00N 34°42' E 135°24'0 0.0
2018-Feb-20 04:30N 34°42' E 135°24'0 0.0
2018-Feb-20 04:00N 34°42' E 135°24'0 0.0
2018-Feb-20 03:30N 34°42' E 135°24'0 0.0
2018-Feb-20 03:00N 34°42' E 135°24'0 0.0
2018-Feb-20 02:30N 34°42' E 135°24'0 0.0
2018-Feb-20 02:00N 34°42' E 135°24'0 0.0
2018-Feb-20 01:30N 34°42' E 135°24'0 0.0
2018-Feb-20 01:00N 34°42' E 135°24'0 0.0
2018-Feb-20 00:30N 34°42' E 135°24'0 0.0
2018-Feb-20 00:00N 34°42' E 135°24'0 0.0
2018-Feb-19 23:30N 34°42' E 135°24'0 0.0
2018-Feb-19 23:00N 34°42' E 135°24'0 0.0
2018-Feb-19 22:30N 34°42' E 135°24'0 0.0
2018-Feb-19 22:00N 34°42' E 135°24'1 2.9
2018-Feb-19 21:30N 34°41' E 135°23'611.2
2018-Feb-19 21:00N 34°41' E 135°16'3 6.1
2018-Feb-19 20:30N 34°41' E 135°12'0 0.0
2018-Feb-19 20:00N 34°41' E 135°12'0 0.0
2018-Feb-19 19:30N 34°41' E 135°12'0 0.0
2018-Feb-19 19:00N 34°41' E 135°12'0 0.0
2018-Feb-19 18:31N 34°41' E 135°12'0 0.0
2018-Feb-19 18:00N 34°41' E 135°12'0 0.0
2018-Feb-19 17:30N 34°41' E 135°12'0 0.0
2018-Feb-19 17:00N 34°41' E 135°12'0 0.0
2018-Feb-19 16:30N 34°41' E 135°12'0 0.0
2018-Feb-19 16:00N 34°41' E 135°12'0 0.0
2018-Feb-19 15:30N 34°41' E 135°12'0 0.0
2018-Feb-19 15:00N 34°41' E 135°12'0 0.0
2018-Feb-19 14:30N 34°41' E 135°12'0 0.0
2018-Feb-19 14:00N 34°41' E 135°12'0 0.0
2018-Feb-19 13:30N 34°41' E 135°12'0 0.0
2018-Feb-19 13:00N 34°41' E 135°12'0 0.0
2018-Feb-19 12:30N 34°41' E 135°12'0 0.0
2018-Feb-19 12:00N 34°41' E 135°12'0 0.0
2018-Feb-19 11:30N 34°41' E 135°12'0 0.0
2018-Feb-19 11:00N 34°41' E 135°12'0 0.0
2018-Feb-19 10:30N 34°41' E 135°12'0 0.0
2018-Feb-19 10:00N 34°41' E 135°12'0 0.0
2018-Feb-19 09:30N 34°41' E 135°12'0 0.0
2018-Feb-19 09:00N 34°41' E 135°12'0 0.0
2018-Feb-19 08:31N 34°41' E 135°12'0 0.0
2018-Feb-19 08:00N 34°41' E 135°12'0 0.0
2018-Feb-19 07:30N 34°41' E 135°12'4 8.8
2018-Feb-19 07:01N 34°41' E 135°18'5 9.5
2018-Feb-19 06:30N 34°36' E 135°20'611.3
2018-Feb-19 06:00N 34°32' E 135°24'1 2.0
2018-Feb-19 05:31N 34°31' E 135°25'0 0.0
2018-Feb-19 05:00N 34°31' E 135°25'0 0.0
2018-Feb-19 04:30N 34°31' E 135°25'0 0.0
2018-Feb-19 04:00N 34°31' E 135°25'0 0.0
2018-Feb-19 03:30N 34°31' E 135°25'0 0.0
2018-Feb-19 03:00N 34°31' E 135°25'0 0.0
2018-Feb-19 02:30N 34°31' E 135°25'0 0.0
2018-Feb-19 02:00N 34°31' E 135°25'0 0.0
2018-Feb-19 01:30N 34°31' E 135°25'1 2.4
2018-Feb-19 01:01N 34°32' E 135°24'1 3.0
2018-Feb-19 00:30N 34°33' E 135°23'4 7.7
2018-Feb-19 00:01N 34°37' E 135°21'2 4.9
2018-Feb-18 23:30N 34°39' E 135°19'0 0.0
2018-Feb-18 23:00N 34°39' E 135°19'0 0.1
2018-Feb-18 22:30N 34°39' E 135°19'0 0.0
2018-Feb-18 22:01N 34°39' E 135°19'0 0.0
2018-Feb-18 21:31N 34°39' E 135°19'0 0.0
2018-Feb-18 21:00N 34°39' E 135°19'0 0.0
2018-Feb-18 20:30N 34°39' E 135°19'0 0.0
2018-Feb-18 20:00N 34°39' E 135°19'0 0.0
2018-Feb-18 19:30N 34°39' E 135°19'0 0.0
2018-Feb-18 19:00N 34°39' E 135°19'0 0.0
2018-Feb-18 18:30N 34°39' E 135°19'0 0.0
2018-Feb-18 18:01N 34°39' E 135°19'0 0.0
2018-Feb-18 17:30N 34°39' E 135°19'0 0.0
2018-Feb-18 17:00N 34°39' E 135°19'0 0.0
2018-Feb-18 16:30N 34°39' E 135°19'0 0.0
2018-Feb-18 16:01N 34°39' E 135°19'0 0.0
2018-Feb-18 15:30N 34°39' E 135°19'0 0.0
2018-Feb-18 15:00N 34°39' E 135°19'0 0.0
2018-Feb-18 14:30N 34°39' E 135°19'2 3.1
2018-Feb-18 14:00N 34°40' E 135°18'0 0.0
2018-Feb-18 13:30N 34°40' E 135°18'0 0.0
2018-Feb-18 13:00N 34°40' E 135°18'0 0.0
2018-Feb-18 12:30N 34°40' E 135°18'0 0.0
2018-Feb-18 12:00N 34°40' E 135°18'0 0.0
2018-Feb-18 11:30N 34°40' E 135°18'1 1.1
2018-Feb-18 11:00N 34°39' E 135°18'0 0.8
2018-Feb-18 10:30N 34°39' E 135°17'4 8.2
2018-Feb-18 10:00N 34°35' E 135°16'510.7
2018-Feb-18 09:30N 34°40' E 135°14'2 3.7
2018-Feb-18 09:00N 34°41' E 135°12'0 0.0
2018-Feb-18 08:29N 34°41' E 135°12'0 0.0
2018-Feb-18 08:00N 34°41' E 135°12'0 0.0
2018-Feb-18 07:30N 34°41' E 135°12'0 0.0
2018-Feb-18 07:00N 34°41' E 135°12'0 0.0
2018-Feb-18 06:29N 34°41' E 135°12'0 0.0
2018-Feb-18 06:00N 34°41' E 135°12'0 0.0
2018-Feb-18 05:30N 34°41' E 135°12'0 0.0
2018-Feb-18 05:00N 34°41' E 135°12'0 0.0
2018-Feb-18 04:30N 34°41' E 135°12'0 0.0
2018-Feb-18 04:00N 34°41' E 135°12'0 0.0
2018-Feb-18 03:30N 34°41' E 135°12'0 0.0
2018-Feb-18 03:00N 34°41' E 135°12'0 0.0
2018-Feb-18 02:30N 34°41' E 135°12'0 0.0
2018-Feb-18 02:00N 34°41' E 135°12'0 0.0
2018-Feb-18 01:30N 34°41' E 135°12'0 0.0
2018-Feb-18 01:00N 34°41' E 135°12'0 0.0
2018-Feb-18 00:30N 34°41' E 135°12'0 0.0
2018-Feb-18 00:00N 34°41' E 135°12'0 0.0
2018-Feb-17 23:30N 34°41' E 135°12'0 0.0
2018-Feb-17 23:00N 34°41' E 135°12'0 0.0
2018-Feb-17 22:31N 34°41' E 135°12'0 0.0
2018-Feb-17 22:00N 34°41' E 135°12'0 0.0
2018-Feb-17 21:30N 34°41' E 135°12'0 0.0
2018-Feb-17 21:01N 34°41' E 135°12'0 0.0
2018-Feb-17 20:29N 34°41' E 135°12'0 0.0
2018-Feb-17 20:01N 34°41' E 135°12'0 0.0
2018-Feb-17 19:30N 34°41' E 135°12'0 0.0
2018-Feb-17 19:00N 34°41' E 135°12'0 0.0
2018-Feb-17 18:31N 34°41' E 135°12'0 0.0
2018-Feb-17 18:01N 34°41' E 135°12'0 0.0
2018-Feb-17 17:30N 34°41' E 135°12'0 0.0
2018-Feb-17 17:00N 34°41' E 135°12'0 0.0
2018-Feb-17 16:30N 34°41' E 135°12'0 0.0
2018-Feb-17 16:00N 34°41' E 135°12'0 0.0
2018-Feb-17 15:30N 34°41' E 135°12'0 0.0
2018-Feb-17 15:01N 34°41' E 135°12'0 0.0
2018-Feb-17 14:30N 34°41' E 135°12'0 0.0
2018-Feb-17 14:00N 34°41' E 135°12'0 0.0
2018-Feb-17 13:30N 34°41' E 135°12'0 0.0
2018-Feb-17 13:00N 34°41' E 135°12'0 0.0
2018-Feb-17 12:30N 34°41' E 135°12'0 0.0
2018-Feb-17 12:00N 34°41' E 135°12'0 0.0
2018-Feb-17 11:29N 34°41' E 135°12'0 0.0
2018-Feb-17 11:00N 34°41' E 135°12'0 0.0
2018-Feb-17 10:31N 34°41' E 135°12'0 0.0
2018-Feb-17 10:00N 34°41' E 135°12'0 0.0
2018-Feb-17 09:30N 34°41' E 135°12'0 0.0
2018-Feb-17 09:01N 34°41' E 135°12'0 0.0
2018-Feb-17 08:30N 34°41' E 135°12'0 0.0
2018-Feb-17 08:00N 34°41' E 135°12'0 0.0
2018-Feb-17 07:30N 34°41' E 135°12'0 0.0
2018-Feb-17 07:00N 34°41' E 135°12'0 0.0
2018-Feb-17 06:30N 34°41' E 135°12'0 0.0
2018-Feb-17 06:01N 34°41' E 135°12'0 0.0
2018-Feb-17 05:30N 34°41' E 135°12'0 0.0
2018-Feb-17 05:01N 34°41' E 135°12'0 0.0
2018-Feb-17 04:30N 34°41' E 135°12'0 0.0
2018-Feb-17 04:00N 34°41' E 135°12'0 0.0
2018-Feb-17 03:30N 34°41' E 135°12'0 0.0
2018-Feb-17 03:00N 34°41' E 135°12'0 0.0
2018-Feb-17 02:29N 34°41' E 135°12'0 0.0
2018-Feb-17 02:00N 34°41' E 135°12'0 0.0
2018-Feb-17 01:30N 34°41' E 135°12'0 0.0
2018-Feb-17 01:00N 34°41' E 135°12'0 0.0
2018-Feb-17 00:30N 34°41' E 135°12'0 0.0
2018-Feb-17 00:00N 34°41' E 135°12'0 0.0
2018-Feb-16 23:30N 34°41' E 135°12'0 0.0
2018-Feb-16 23:00N 34°41' E 135°12'0 0.0
2018-Feb-16 22:30N 34°41' E 135°12'0 0.0
2018-Feb-16 22:00N 34°41' E 135°12'0 0.0
2018-Feb-16 21:30N 34°41' E 135°12'0 0.0
2018-Feb-16 21:00N 34°41' E 135°12'0 0.0
2018-Feb-16 20:30N 34°41' E 135°12'0 0.0
2018-Feb-16 20:00N 34°41' E 135°12'0 0.0
2018-Feb-16 19:29N 34°41' E 135°12'0 0.0
2018-Feb-16 19:00N 34°41' E 135°12'0 0.0
2018-Feb-16 18:30N 34°41' E 135°12'0 0.0
2018-Feb-16 18:00N 34°41' E 135°12'0 0.0
2018-Feb-16 17:31N 34°41' E 135°12'0 0.0
2018-Feb-16 17:00N 34°41' E 135°12'0 0.0
2018-Feb-16 16:30N 34°41' E 135°12'0 0.0
2018-Feb-16 16:00N 34°41' E 135°12'0 0.0
2018-Feb-16 15:30N 34°41' E 135°12'0 0.0
2018-Feb-16 15:00N 34°41' E 135°12'0 0.0
2018-Feb-16 14:30N 34°41' E 135°12'0 0.0
2018-Feb-16 14:01N 34°41' E 135°12'0 0.0
2018-Feb-16 13:30N 34°41' E 135°12'0 0.0
2018-Feb-16 13:00N 34°41' E 135°12'0 0.0
2018-Feb-16 12:30N 34°41' E 135°12'0 0.0
2018-Feb-16 12:00N 34°41' E 135°12'0 0.0
2018-Feb-16 11:30N 34°41' E 135°12'0 0.0
2018-Feb-16 11:01N 34°41' E 135°12'0 0.0
2018-Feb-16 10:30N 34°41' E 135°12'0 0.0
2018-Feb-16 10:01N 34°41' E 135°12'0 0.0
2018-Feb-16 09:30N 34°41' E 135°12'0 0.0
2018-Feb-16 09:00N 34°41' E 135°12'0 0.0
2018-Feb-16 08:30N 34°41' E 135°12'0 0.0
2018-Feb-16 08:01N 34°41' E 135°12'0 0.0
2018-Feb-16 07:30N 34°41' E 135°12'0 0.0
2018-Feb-16 07:00N 34°41' E 135°12'0 0.0
2018-Feb-16 06:30N 34°41' E 135°12'0 0.0
2018-Feb-16 06:00N 34°41' E 135°12'0 0.0
2018-Feb-16 05:30N 34°41' E 135°12'0 0.0
2018-Feb-16 05:00N 34°41' E 135°12'0 0.0
2018-Feb-16 04:31N 34°41' E 135°12'0 0.0
2018-Feb-16 04:00N 34°41' E 135°12'0 0.0
2018-Feb-16 03:30N 34°41' E 135°12'0 0.0
2018-Feb-16 03:01N 34°41' E 135°12'0 0.0
2018-Feb-16 02:30N 34°41' E 135°12'0 0.0
2018-Feb-16 02:00N 34°41' E 135°12'0 0.0
2018-Feb-16 01:31N 34°41' E 135°12'0 0.0
2018-Feb-16 01:01N 34°41' E 135°12'0 0.0
2018-Feb-16 00:30N 34°41' E 135°12'0 0.0
2018-Feb-16 00:00N 34°41' E 135°12'0 0.0
2018-Feb-15 23:30N 34°41' E 135°12'0 0.0
2018-Feb-15 23:00N 34°41' E 135°12'0 0.0
2018-Feb-15 22:30N 34°41' E 135°12'0 0.0
2018-Feb-15 22:00N 34°41' E 135°12'0 0.0
2018-Feb-15 21:30N 34°41' E 135°12'0 0.0
2018-Feb-15 21:00N 34°41' E 135°12'0 0.0
2018-Feb-15 20:30N 34°41' E 135°12'0 0.0
2018-Feb-15 20:00N 34°41' E 135°12'0 0.0
2018-Feb-15 19:30N 34°41' E 135°12'0 0.0
2018-Feb-15 19:00N 34°41' E 135°12'0 0.0
2018-Feb-15 18:30N 34°41' E 135°12'0 0.0
2018-Feb-15 18:00N 34°41' E 135°12'0 0.0
2018-Feb-15 17:30N 34°41' E 135°12'0 0.0
2018-Feb-15 17:00N 34°41' E 135°12'0 0.0
2018-Feb-15 16:30N 34°41' E 135°12'0 0.0
2018-Feb-15 16:00N 34°41' E 135°12'0 0.0
2018-Feb-15 15:30N 34°41' E 135°12'0 0.0
2018-Feb-15 15:00N 34°41' E 135°12'0 0.0
2018-Feb-15 14:30N 34°41' E 135°12'0 0.0
2018-Feb-15 14:01N 34°41' E 135°12'0 0.0
2018-Feb-15 13:30N 34°41' E 135°12'0 0.0
2018-Feb-15 13:00N 34°41' E 135°12'0 0.0
2018-Feb-15 12:30N 34°41' E 135°12'0 0.0
2018-Feb-15 12:00N 34°41' E 135°12'0 0.0
2018-Feb-15 11:30N 34°41' E 135°12'0 0.0
2018-Feb-15 11:00N 34°41' E 135°12'0 0.0
2018-Feb-15 10:30N 34°41' E 135°12'0 0.0
2018-Feb-15 10:00N 34°41' E 135°12'0 0.0
2018-Feb-15 09:30N 34°41' E 135°12'0 0.0
2018-Feb-15 09:00N 34°41' E 135°12'0 0.0
2018-Feb-15 08:30N 34°41' E 135°12'0 0.0
2018-Feb-15 08:01N 34°41' E 135°12'0 0.0
2018-Feb-15 07:30N 34°41' E 135°12'0 0.0
2018-Feb-15 07:00N 34°41' E 135°12'0 0.0
2018-Feb-15 06:30N 34°41' E 135°12'0 0.0
2018-Feb-15 06:00N 34°41' E 135°12'0 0.0
2018-Feb-15 05:30N 34°41' E 135°12'0 0.0
2018-Feb-15 05:01N 34°41' E 135°12'0 0.0
2018-Feb-15 04:30N 34°41' E 135°12'0 0.0
2018-Feb-15 04:01N 34°41' E 135°12'5 9.0
2018-Feb-15 03:30N 34°41' E 135°18'510.2
2018-Feb-15 03:00N 34°42' E 135°24'0 0.9
2018-Feb-15 02:30N 34°42' E 135°24'0 0.1
2018-Feb-15 02:00N 34°42' E 135°23'0 0.0
2018-Feb-15 01:31N 34°42' E 135°23'0 0.0
2018-Feb-15 01:00N 34°42' E 135°23'0 0.0
2018-Feb-15 00:30N 34°42' E 135°23'0 0.0
2018-Feb-15 00:00N 34°42' E 135°23'0 0.0
2018-Feb-14 23:30N 34°42' E 135°23'0 0.0
2018-Feb-14 23:00N 34°42' E 135°23'0 0.0
2018-Feb-14 22:30N 34°42' E 135°23'0 0.8
2018-Feb-14 22:01N 34°42' E 135°24'1 2.1
2018-Feb-14 21:30N 34°41' E 135°23'0 0.1
2018-Feb-14 21:00N 34°41' E 135°23'0 0.0
2018-Feb-14 20:30N 34°41' E 135°23'0 0.0
2018-Feb-14 20:00N 34°41' E 135°23'0 0.0
2018-Feb-14 19:30N 34°41' E 135°23'0 0.0
2018-Feb-14 19:00N 34°41' E 135°23'0 0.1
2018-Feb-14 18:30N 34°41' E 135°23'0 0.0
2018-Feb-14 18:01N 34°41' E 135°23'0 0.0
2018-Feb-14 17:30N 34°41' E 135°23'0 0.0
2018-Feb-14 17:01N 34°41' E 135°23'0 0.0
2018-Feb-14 16:30N 34°41' E 135°23'0 0.0
2018-Feb-14 16:01N 34°41' E 135°23'0 0.1
2018-Feb-14 15:30N 34°41' E 135°23'0 0.0
2018-Feb-14 15:00N 34°41' E 135°23'0 0.0
2018-Feb-14 14:31N 34°41' E 135°23'0 0.0
2018-Feb-14 14:00N 34°41' E 135°23'0 0.0
2018-Feb-14 13:31N 34°41' E 135°23'0 0.0
2018-Feb-14 13:00N 34°41' E 135°23'0 0.0
2018-Feb-14 12:30N 34°41' E 135°23'0 0.0
2018-Feb-14 12:00N 34°41' E 135°23'0 0.1
2018-Feb-14 11:30N 34°41' E 135°23'0 0.0
2018-Feb-14 11:00N 34°41' E 135°23'0 0.1
2018-Feb-14 10:30N 34°41' E 135°23'0 0.0
2018-Feb-14 10:00N 34°41' E 135°23'0 0.1
2018-Feb-14 09:31N 34°41' E 135°23'2 3.5
2018-Feb-14 09:00N 34°41' E 135°21'0 0.0
2018-Feb-14 08:30N 34°41' E 135°21'0 0.0
2018-Feb-14 08:00N 34°41' E 135°21'0 0.0
2018-Feb-14 07:31N 34°41' E 135°21'0 0.0
2018-Feb-14 07:00N 34°41' E 135°21'1 2.2
2018-Feb-14 06:30N 34°41' E 135°23'2 3.5
2018-Feb-14 06:00N 34°42' E 135°24'0 0.8
2018-Feb-14 05:31N 34°42' E 135°23'0 0.0
2018-Feb-14 05:00N 34°42' E 135°23'0 0.0
2018-Feb-14 04:30N 34°42' E 135°23'0 0.0
2018-Feb-14 04:01N 34°42' E 135°23'0 0.0
2018-Feb-14 03:30N 34°42' E 135°23'0 0.0
2018-Feb-14 03:00N 34°42' E 135°23'0 0.0
2018-Feb-14 02:31N 34°42' E 135°23'0 0.2
2018-Feb-14 02:00N 34°42' E 135°24'0 0.0
2018-Feb-14 01:31N 34°42' E 135°24'0 0.8
2018-Feb-14 01:01N 34°42' E 135°24'4 8.2
2018-Feb-14 00:31N 34°40' E 135°20'510.1
2018-Feb-14 00:00N 34°39' E 135°14'2 3.7
2018-Feb-13 23:30N 34°40' E 135°12'0 0.0
2018-Feb-13 23:01N 34°40' E 135°12'0 0.0
2018-Feb-13 22:30N 34°40' E 135°12'0 0.0
2018-Feb-13 22:01N 34°40' E 135°12'0 0.0
2018-Feb-13 21:31N 34°40' E 135°12'0 0.0
2018-Feb-13 21:00N 34°40' E 135°12'0 0.0
2018-Feb-13 20:30N 34°40' E 135°12'0 0.0
2018-Feb-13 20:00N 34°40' E 135°12'0 0.0
2018-Feb-13 19:30N 34°40' E 135°12'0 0.1
2018-Feb-13 18:59N 34°40' E 135°12'0 0.1
2018-Feb-13 18:30N 34°40' E 135°12'0 0.0
2018-Feb-13 18:01N 34°40' E 135°12'0 0.0
2018-Feb-13 17:30N 34°40' E 135°12'0 0.0
2018-Feb-13 17:01N 34°40' E 135°12'0 0.1
2018-Feb-13 16:30N 34°40' E 135°12'0 0.1
2018-Feb-13 16:00N 34°40' E 135°12'0 0.0
2018-Feb-13 15:31N 34°40' E 135°12'0 0.1
2018-Feb-13 15:01N 34°40' E 135°12'0 0.1
2018-Feb-13 14:30N 34°40' E 135°12'0 0.1
2018-Feb-13 14:01N 34°40' E 135°12'0 0.0
2018-Feb-13 13:31N 34°40' E 135°12'0 0.0
2018-Feb-13 13:01N 34°40' E 135°12'0 0.0
2018-Feb-13 12:31N 34°40' E 135°12'1 1.7
2018-Feb-13 12:00N 34°41' E 135°12'0 0.6
2018-Feb-13 11:31N 34°41' E 135°12'0 0.0
2018-Feb-13 11:01N 34°41' E 135°12'0 0.0
2018-Feb-13 10:30N 34°41' E 135°12'0 0.0
2018-Feb-13 10:00N 34°41' E 135°12'1 2.6
2018-Feb-13 09:31N 34°40' E 135°11'611.5
2018-Feb-13 09:01N 34°34' E 135°09'611.2
2018-Feb-13 08:31N 34°29' E 135°06'611.5
2018-Feb-13 08:01N 34°24' E 135°04'611.1
2018-Feb-13 07:30N 34°19' E 135°00'510.8
2018-Feb-13 07:01N 34°14' E 134°57'510.8
2018-Feb-13 06:30N 34°10' E 134°52'5 9.8
2018-Feb-13 06:00N 34°07' E 134°48'510.2
2018-Feb-13 05:30N 34°04' E 134°43'4 7.5
2018-Feb-13 04:58N 34°00' E 134°43'5 8.8
2018-Feb-13 04:24N 33°56' E 134°45'1 0.1
2018-Feb-12 11:43N 33°57' E 134°44'311.6
2018-Feb-12 11:28N 33°60' E 134°43'511.7
2018-Feb-12 11:01N 34°05' E 134°42'611.3
2018-Feb-12 10:30N 34°10' E 134°40'510.2
2018-Feb-12 09:58N 34°16' E 134°37'4 8.6
2018-Feb-12 09:30N 34°16' E 134°33'3 6.2
2018-Feb-12 09:01N 34°19' E 134°34'4 8.6
2018-Feb-12 08:30N 34°23' E 134°37'5 9.6
2018-Feb-12 08:00N 34°27' E 134°38'5 9.4
2018-Feb-12 07:31N 34°32' E 134°40'510.1
2018-Feb-12 07:00N 34°36' E 134°42'510.1
2018-Feb-12 06:31N 34°41' E 134°45'4 0.5
2018-Feb-11 22:13N 34°45' E 134°47'1 2.7
2018-Feb-11 22:00N 34°44' E 134°47'0 0.2
2018-Feb-11 21:30N 34°44' E 134°47'0 0.0
2018-Feb-11 21:00N 34°44' E 134°47'0 0.0
2018-Feb-11 20:30N 34°44' E 134°47'0 0.0
2018-Feb-11 20:00N 34°44' E 134°47'0 0.0
2018-Feb-11 19:30N 34°44' E 134°47'0 0.0
2018-Feb-11 19:00N 34°44' E 134°47'0 0.0
2018-Feb-11 18:29N 34°44' E 134°47'0 0.0
2018-Feb-11 18:01N 34°44' E 134°47'0 0.0
2018-Feb-11 17:30N 34°44' E 134°47'0 0.0
2018-Feb-11 17:00N 34°44' E 134°47'0 0.0
2018-Feb-11 16:30N 34°44' E 134°47'0 0.0
2018-Feb-11 16:01N 34°44' E 134°47'0 0.0
2018-Feb-11 15:31N 34°44' E 134°47'0 0.0
2018-Feb-11 15:00N 34°44' E 134°47'0 0.0
2018-Feb-11 14:30N 34°44' E 134°47'0 0.0
2018-Feb-11 14:00N 34°44' E 134°47'0 0.0
2018-Feb-11 13:30N 34°44' E 134°47'0 0.0
2018-Feb-11 13:00N 34°44' E 134°47'0 0.0
2018-Feb-11 12:31N 34°44' E 134°47'0 0.0
2018-Feb-11 12:00N 34°44' E 134°47'0 0.0
2018-Feb-11 11:30N 34°44' E 134°47'0 0.0
2018-Feb-11 11:00N 34°44' E 134°47'0 0.0
2018-Feb-11 10:30N 34°44' E 134°47'0 0.0
2018-Feb-11 10:00N 34°44' E 134°47'  

Dump ship's entire track history